Terminal Aerodrome Forecast
Issued by NWS

Current Version | Previous Version | Text Only | Print | Product List | Glossary On
Versions: 1 2 3 4 5 6 7 8 9 10 11 12 13 14 15 16 17 18 19 20 21 22 23 24 25 26 27 28 29
000
FTUS41 KOKX 290524
TAFHPN
TAF
KHPN 290524Z 2906/3006 33005KT P6SM SCT015 BKN025
      TEMPO 2906/2909 BKN015
     FM290900 35008KT P6SM SCT025 BKN035
     FM291200 33010G17KT P6SM FEW025 SCT050
     FM291500 33014G20KT P6SM SCT040 SCT250
     FM292300 35012G18KT P6SM FEW250
     FM300100 35010KT P6SM FEW250
      AMD NOT SKED=

USA.gov is the U.S. government's official web portal to all federal, state and local government web resources and services.